sensor_id;sensor_type;location;lat;lon;timestamp;P1;durP1;ratioP1;P2;durP2;ratioP2
6290;SDS011;3178;48.730;8.990;2022-09-27T00:00:38;3.10;;;1.17;;
6290;SDS011;3178;48.730;8.990;2022-09-27T00:03:06;4.07;;;1.50;;
6290;SDS011;3178;48.730;8.990;2022-09-27T00:05:33;6.63;;;1.23;;
6290;SDS011;3178;48.730;8.990;2022-09-27T00:07:58;1.17;;;0.93;;
6290;SDS011;3178;48.730;8.990;2022-09-27T00:10:24;3.70;;;1.40;;
6290;SDS011;3178;48.730;8.990;2022-09-27T00:12:49;3.00;;;1.37;;
6290;SDS011;3178;48.730;8.990;2022-09-27T00:15:16;2.33;;;0.97;;
6290;SDS011;3178;48.730;8.990;2022-09-27T00:17:41;1.53;;;1.20;;
6290;SDS011;3178;48.730;8.990;2022-09-27T00:20:07;2.27;;;1.30;;
6290;SDS011;3178;48.730;8.990;2022-09-27T00:22:33;1.60;;;1.00;;
6290;SDS011;3178;48.730;8.990;2022-09-27T00:24:59;2.13;;;1.20;;
6290;SDS011;3178;48.730;8.990;2022-09-27T00:27:25;2.43;;;1.20;;
6290;SDS011;3178;48.730;8.990;2022-09-27T00:29:52;6.30;;;1.17;;
6290;SDS011;3178;48.730;8.990;2022-09-27T00:32:17;1.70;;;0.90;;
6290;SDS011;3178;48.730;8.990;2022-09-27T00:34:43;1.33;;;1.00;;
6290;SDS011;3178;48.730;8.990;2022-09-27T00:37:09;2.07;;;1.00;;
6290;SDS011;3178;48.730;8.990;2022-09-27T00:39:35;1.63;;;1.00;;
6290;SDS011;3178;48.730;8.990;2022-09-27T00:42:03;1.40;;;1.07;;
6290;SDS011;3178;48.730;8.990;2022-09-27T00:49:37;1.87;;;1.00;;
6290;SDS011;3178;48.730;8.990;2022-09-27T00:52:07;3.07;;;0.80;;
6290;SDS011;3178;48.730;8.990;2022-09-27T00:54:39;2.13;;;0.93;;
6290;SDS011;3178;48.730;8.990;2022-09-27T00:57:08;3.20;;;1.20;;
6290;SDS011;3178;48.730;8.990;2022-09-27T00:59:35;1.93;;;0.90;;
6290;SDS011;3178;48.730;8.990;2022-09-27T01:02:04;2.27;;;0.97;;
6290;SDS011;3178;48.730;8.990;2022-09-27T01:04:31;1.57;;;0.90;;
6290;SDS011;3178;48.730;8.990;2022-09-27T01:06:57;1.30;;;0.90;;
6290;SDS011;3178;48.730;8.990;2022-09-27T01:09:24;4.70;;;1.10;;
6290;SDS011;3178;48.730;8.990;2022-09-27T01:11:53;3.23;;;0.80;;
6290;SDS011;3178;48.730;8.990;2022-09-27T01:31:32;2.40;;;1.13;;
6290;SDS011;3178;48.730;8.990;2022-09-27T01:34:22;1.10;;;0.87;;
6290;SDS011;3178;48.730;8.990;2022-09-27T01:40:12;2.07;;;1.00;;
6290;SDS011;3178;48.730;8.990;2022-09-27T01:42:59;2.50;;;0.80;;
6290;SDS011;3178;48.730;8.990;2022-09-27T01:45:37;1.10;;;0.80;;
6290;SDS011;3178;48.730;8.990;2022-09-27T01:48:39;1.17;;;0.80;;
6290;SDS011;3178;48.730;8.990;2022-09-27T01:51:09;1.50;;;0.83;;
6290;SDS011;3178;48.730;8.990;2022-09-27T01:53:40;1.97;;;1.20;;
6290;SDS011;3178;48.730;8.990;2022-09-27T01:56:33;1.30;;;0.90;;
6290;SDS011;3178;48.730;8.990;2022-09-27T01:59:06;1.20;;;0.90;;
6290;SDS011;3178;48.730;8.990;2022-09-27T02:01:40;3.30;;;1.10;;
6290;SDS011;3178;48.730;8.990;2022-09-27T02:04:12;1.00;;;0.60;;
6290;SDS011;3178;48.730;8.990;2022-09-27T02:06:43;2.20;;;0.70;;
6290;SDS011;3178;48.730;8.990;2022-09-27T02:09:13;1.77;;;0.70;;
6290;SDS011;3178;48.730;8.990;2022-09-27T02:11:53;1.50;;;0.70;;
6290;SDS011;3178;48.730;8.990;2022-09-27T02:14:26;1.60;;;0.70;;
6290;SDS011;3178;48.730;8.990;2022-09-27T02:16:58;2.03;;;0.93;;
6290;SDS011;3178;48.730;8.990;2022-09-27T02:19:37;1.20;;;0.80;;
6290;SDS011;3178;48.730;8.990;2022-09-27T02:24:48;1.20;;;0.60;;
6290;SDS011;3178;48.730;8.990;2022-09-27T02:27:28;1.40;;;0.80;;
6290;SDS011;3178;48.730;8.990;2022-09-27T02:30:09;2.03;;;0.73;;
6290;SDS011;3178;48.730;8.990;2022-09-27T02:32:36;1.00;;;0.60;;
6290;SDS011;3178;48.730;8.990;2022-09-27T02:35:04;2.13;;;0.70;;
6290;SDS011;3178;48.730;8.990;2022-09-27T02:37:34;2.23;;;0.60;;
6290;SDS011;3178;48.730;8.990;2022-09-27T02:39:59;0.90;;;0.50;;
6290;SDS011;3178;48.730;8.990;2022-09-27T02:42:25;4.90;;;1.43;;
6290;SDS011;3178;48.730;8.990;2022-09-27T02:44:52;2.13;;;0.57;;
6290;SDS011;3178;48.730;8.990;2022-09-27T02:47:22;1.10;;;0.63;;
6290;SDS011;3178;48.730;8.990;2022-09-27T02:52:41;1.20;;;0.60;;
6290;SDS011;3178;48.730;8.990;2022-09-27T02:55:18;1.33;;;0.50;;
6290;SDS011;3178;48.730;8.990;2022-09-27T03:01:16;3.30;;;0.60;;
6290;SDS011;3178;48.730;8.990;2022-09-27T03:06:43;1.00;;;0.70;;
6290;SDS011;3178;48.730;8.990;2022-09-27T03:09:18;3.30;;;0.60;;
6290;SDS011;3178;48.730;8.990;2022-09-27T03:11:45;2.43;;;0.60;;
6290;SDS011;3178;48.730;8.990;2022-09-27T03:14:11;1.43;;;0.73;;
6290;SDS011;3178;48.730;8.990;2022-09-27T03:16:36;2.13;;;0.80;;
6290;SDS011;3178;48.730;8.990;2022-09-27T03:19:02;3.00;;;0.77;;
6290;SDS011;3178;48.730;8.990;2022-09-27T03:21:28;1.93;;;0.90;;
6290;SDS011;3178;48.730;8.990;2022-09-27T03:23:53;1.30;;;0.80;;
6290;SDS011;3178;48.730;8.990;2022-09-27T03:26:19;3.57;;;0.97;;
6290;SDS011;3178;48.730;8.990;2022-09-27T03:28:45;2.13;;;1.20;;
6290;SDS011;3178;48.730;8.990;2022-09-27T03:31:10;2.93;;;1.23;;
6290;SDS011;3178;48.730;8.990;2022-09-27T03:33:36;6.43;;;1.90;;
6290;SDS011;3178;48.730;8.990;2022-09-27T03:36:01;4.50;;;1.60;;
6290;SDS011;3178;48.730;8.990;2022-09-27T03:38:28;4.13;;;1.70;;
6290;SDS011;3178;48.730;8.990;2022-09-27T03:40:53;7.00;;;2.57;;
6290;SDS011;3178;48.730;8.990;2022-09-27T03:43:22;4.67;;;1.40;;
6290;SDS011;3178;48.730;8.990;2022-09-27T03:45:47;5.70;;;2.07;;
6290;SDS011;3178;48.730;8.990;2022-09-27T03:48:14;5.10;;;1.73;;
6290;SDS011;3178;48.730;8.990;2022-09-27T03:50:39;9.40;;;1.77;;
6290;SDS011;3178;48.730;8.990;2022-09-27T03:53:05;6.70;;;1.37;;
6290;SDS011;3178;48.730;8.990;2022-09-27T03:55:30;5.10;;;1.73;;
6290;SDS011;3178;48.730;8.990;2022-09-27T03:57:56;6.87;;;1.90;;
6290;SDS011;3178;48.730;8.990;2022-09-27T04:00:22;11.07;;;2.60;;
6290;SDS011;3178;48.730;8.990;2022-09-27T04:02:48;2.97;;;1.40;;
6290;SDS011;3178;48.730;8.990;2022-09-27T04:05:14;4.83;;;1.60;;
6290;SDS011;3178;48.730;8.990;2022-09-27T04:07:44;6.80;;;2.00;;
6290;SDS011;3178;48.730;8.990;2022-09-27T04:10:11;6.83;;;1.73;;
6290;SDS011;3178;48.730;8.990;2022-09-27T04:12:38;3.77;;;2.30;;
6290;SDS011;3178;48.730;8.990;2022-09-27T04:15:04;3.53;;;1.80;;
6290;SDS011;3178;48.730;8.990;2022-09-27T04:17:31;4.40;;;1.77;;
6290;SDS011;3178;48.730;8.990;2022-09-27T04:19:57;9.63;;;2.00;;
6290;SDS011;3178;48.730;8.990;2022-09-27T04:22:22;7.93;;;2.70;;
6290;SDS011;3178;48.730;8.990;2022-09-27T04:24:48;6.50;;;2.10;;
6290;SDS011;3178;48.730;8.990;2022-09-27T04:27:14;10.63;;;2.90;;
6290;SDS011;3178;48.730;8.990;2022-09-27T04:29:41;5.50;;;3.47;;
6290;SDS011;3178;48.730;8.990;2022-09-27T04:32:09;9.00;;;3.70;;
6290;SDS011;3178;48.730;8.990;2022-09-27T04:34:36;6.30;;;3.00;;
6290;SDS011;3178;48.730;8.990;2022-09-27T04:37:20;4.97;;;2.77;;
6290;SDS011;3178;48.730;8.990;2022-09-27T04:39:45;12.47;;;2.40;;
6290;SDS011;3178;48.730;8.990;2022-09-27T04:42:12;4.33;;;2.30;;
6290;SDS011;3178;48.730;8.990;2022-09-27T04:44:37;5.40;;;2.33;;
6290;SDS011;3178;48.730;8.990;2022-09-27T04:47:03;13.40;;;2.87;;
6290;SDS011;3178;48.730;8.990;2022-09-27T04:49:28;6.97;;;2.10;;
6290;SDS011;3178;48.730;8.990;2022-09-27T04:51:54;8.70;;;2.30;;
6290;SDS011;3178;48.730;8.990;2022-09-27T04:54:20;6.80;;;2.17;;
6290;SDS011;3178;48.730;8.990;2022-09-27T04:56:46;5.77;;;2.40;;
6290;SDS011;3178;48.730;8.990;2022-09-27T04:59:12;8.33;;;1.70;;
6290;SDS011;3178;48.730;8.990;2022-09-27T05:01:38;8.73;;;1.80;;
6290;SDS011;3178;48.730;8.990;2022-09-27T05:04:04;4.77;;;1.60;;
6290;SDS011;3178;48.730;8.990;2022-09-27T05:06:30;6.37;;;1.50;;
6290;SDS011;3178;48.730;8.990;2022-09-27T05:08:55;2.97;;;1.60;;
6290;SDS011;3178;48.730;8.990;2022-09-27T05:11:22;7.47;;;1.50;;
6290;SDS011;3178;48.730;8.990;2022-09-27T05:13:48;3.27;;;1.60;;
6290;SDS011;3178;48.730;8.990;2022-09-27T05:16:14;2.87;;;1.23;;
6290;SDS011;3178;48.730;8.990;2022-09-27T05:18:39;24.20;;;1.60;;
6290;SDS011;3178;48.730;8.990;2022-09-27T05:21:06;3.23;;;1.60;;
6290;SDS011;3178;48.730;8.990;2022-09-27T05:23:31;1.30;;;1.03;;
6290;SDS011;3178;48.730;8.990;2022-09-27T05:25:57;4.23;;;2.10;;
6290;SDS011;3178;48.730;8.990;2022-09-27T05:28:26;2.80;;;1.40;;
6290;SDS011;3178;48.730;8.990;2022-09-27T05:30:52;4.97;;;1.70;;
6290;SDS011;3178;48.730;8.990;2022-09-27T05:33:18;5.30;;;1.40;;
6290;SDS011;3178;48.730;8.990;2022-09-27T05:35:49;3.73;;;1.57;;
6290;SDS011;3178;48.730;8.990;2022-09-27T05:38:16;3.50;;;1.63;;
6290;SDS011;3178;48.730;8.990;2022-09-27T05:40:41;11.67;;;3.13;;
6290;SDS011;3178;48.730;8.990;2022-09-27T05:43:08;2.90;;;1.37;;
6290;SDS011;3178;48.730;8.990;2022-09-27T05:45:34;3.07;;;1.33;;
6290;SDS011;3178;48.730;8.990;2022-09-27T05:47:59;2.10;;;1.27;;
6290;SDS011;3178;48.730;8.990;2022-09-27T05:50:25;4.40;;;1.07;;
6290;SDS011;3178;48.730;8.990;2022-09-27T05:52:52;6.00;;;1.87;;
6290;SDS011;3178;48.730;8.990;2022-09-27T05:55:18;5.17;;;1.20;;
6290;SDS011;3178;48.730;8.990;2022-09-27T05:57:57;3.33;;;1.33;;
6290;SDS011;3178;48.730;8.990;2022-09-27T06:00:24;4.67;;;1.20;;
6290;SDS011;3178;48.730;8.990;2022-09-27T06:02:58;4.90;;;1.20;;
6290;SDS011;3178;48.730;8.990;2022-09-27T06:05:26;10.20;;;1.27;;
6290;SDS011;3178;48.730;8.990;2022-09-27T06:07:57;2.53;;;1.07;;
6290;SDS011;3178;48.730;8.990;2022-09-27T06:10:24;1.87;;;0.80;;
6290;SDS011;3178;48.730;8.990;2022-09-27T06:12:50;7.97;;;1.00;;
6290;SDS011;3178;48.730;8.990;2022-09-27T06:15:16;6.93;;;0.83;;
6290;SDS011;3178;48.730;8.990;2022-09-27T06:17:42;1.57;;;1.17;;
6290;SDS011;3178;48.730;8.990;2022-09-27T06:20:07;1.30;;;0.90;;
6290;SDS011;3178;48.730;8.990;2022-09-27T06:22:34;1.67;;;0.97;;
6290;SDS011;3178;48.730;8.990;2022-09-27T06:25:00;1.83;;;1.30;;
6290;SDS011;3178;48.730;8.990;2022-09-27T06:27:27;1.50;;;0.83;;
6290;SDS011;3178;48.730;8.990;2022-09-27T06:29:54;1.83;;;0.80;;
6290;SDS011;3178;48.730;8.990;2022-09-27T06:32:20;2.87;;;0.80;;
6290;SDS011;3178;48.730;8.990;2022-09-27T06:34:46;4.33;;;1.60;;
6290;SDS011;3178;48.730;8.990;2022-09-27T06:37:11;1.87;;;1.10;;
6290;SDS011;3178;48.730;8.990;2022-09-27T06:39:37;1.77;;;0.90;;
6290;SDS011;3178;48.730;8.990;2022-09-27T06:42:02;4.87;;;0.80;;
6290;SDS011;3178;48.730;8.990;2022-09-27T06:44:28;1.20;;;0.83;;
6290;SDS011;3178;48.730;8.990;2022-09-27T06:46:53;1.20;;;0.80;;
6290;SDS011;3178;48.730;8.990;2022-09-27T06:49:19;1.50;;;0.80;;
6290;SDS011;3178;48.730;8.990;2022-09-27T06:51:46;1.83;;;0.90;;
6290;SDS011;3178;48.730;8.990;2022-09-27T06:54:13;4.20;;;0.90;;
6290;SDS011;3178;48.730;8.990;2022-09-27T06:56:39;1.60;;;0.80;;
6290;SDS011;3178;48.730;8.990;2022-09-27T06:59:04;2.00;;;0.90;;
6290;SDS011;3178;48.730;8.990;2022-09-27T07:01:48;1.50;;;0.83;;
6290;SDS011;3178;48.730;8.990;2022-09-27T07:04:16;2.13;;;0.60;;
6290;SDS011;3178;48.730;8.990;2022-09-27T07:06:42;1.20;;;0.57;;
6290;SDS011;3178;48.730;8.990;2022-09-27T07:09:09;1.00;;;0.60;;
6290;SDS011;3178;48.730;8.990;2022-09-27T07:11:34;2.50;;;0.80;;
6290;SDS011;3178;48.730;8.990;2022-09-27T07:14:01;1.40;;;0.70;;
6290;SDS011;3178;48.730;8.990;2022-09-27T07:16:31;1.97;;;0.70;;
6290;SDS011;3178;48.730;8.990;2022-09-27T07:18:58;1.20;;;0.77;;
6290;SDS011;3178;48.730;8.990;2022-09-27T07:21:24;1.40;;;0.60;;
6290;SDS011;3178;48.730;8.990;2022-09-27T07:23:50;2.27;;;0.80;;
6290;SDS011;3178;48.730;8.990;2022-09-27T07:26:16;1.43;;;0.60;;
6290;SDS011;3178;48.730;8.990;2022-09-27T07:28:41;1.30;;;0.70;;
6290;SDS011;3178;48.730;8.990;2022-09-27T07:31:08;3.53;;;0.80;;
6290;SDS011;3178;48.730;8.990;2022-09-27T07:33:34;1.90;;;0.63;;
6290;SDS011;3178;48.730;8.990;2022-09-27T07:36:04;1.17;;;0.73;;
6290;SDS011;3178;48.730;8.990;2022-09-27T07:38:31;1.10;;;0.63;;
6290;SDS011;3178;48.730;8.990;2022-09-27T07:40:57;1.77;;;0.70;;
6290;SDS011;3178;48.730;8.990;2022-09-27T07:43:23;1.57;;;0.80;;
6290;SDS011;3178;48.730;8.990;2022-09-27T07:45:48;1.40;;;0.80;;
6290;SDS011;3178;48.730;8.990;2022-09-27T07:48:14;2.03;;;0.77;;
6290;SDS011;3178;48.730;8.990;2022-09-27T07:50:40;2.80;;;0.70;;
6290;SDS011;3178;48.730;8.990;2022-09-27T07:53:06;1.63;;;0.70;;
6290;SDS011;3178;48.730;8.990;2022-09-27T07:55:32;2.27;;;0.60;;
6290;SDS011;3178;48.730;8.990;2022-09-27T07:58:04;2.70;;;1.17;;
6290;SDS011;3178;48.730;8.990;2022-09-27T08:00:32;3.63;;;0.50;;
6290;SDS011;3178;48.730;8.990;2022-09-27T08:03:02;2.27;;;0.80;;
6290;SDS011;3178;48.730;8.990;2022-09-27T08:05:32;2.13;;;0.67;;
6290;SDS011;3178;48.730;8.990;2022-09-27T08:07:59;1.30;;;0.67;;
6290;SDS011;3178;48.730;8.990;2022-09-27T08:10:25;1.27;;;0.53;;
6290;SDS011;3178;48.730;8.990;2022-09-27T08:12:54;2.60;;;0.70;;
6290;SDS011;3178;48.730;8.990;2022-09-27T08:15:20;1.20;;;0.87;;
6290;SDS011;3178;48.730;8.990;2022-09-27T08:17:45;0.93;;;0.50;;
6290;SDS011;3178;48.730;8.990;2022-09-27T08:20:11;1.10;;;0.60;;
6290;SDS011;3178;48.730;8.990;2022-09-27T08:22:39;1.63;;;0.77;;
6290;SDS011;3178;48.730;8.990;2022-09-27T08:25:06;3.07;;;1.10;;
6290;SDS011;3178;48.730;8.990;2022-09-27T08:27:32;1.27;;;0.80;;
6290;SDS011;3178;48.730;8.990;2022-09-27T08:29:58;2.07;;;0.97;;
6290;SDS011;3178;48.730;8.990;2022-09-27T08:32:24;1.10;;;0.50;;
6290;SDS011;3178;48.730;8.990;2022-09-27T08:34:50;2.80;;;0.70;;
6290;SDS011;3178;48.730;8.990;2022-09-27T08:37:15;2.37;;;0.80;;
6290;SDS011;3178;48.730;8.990;2022-09-27T08:39:41;2.30;;;0.87;;
6290;SDS011;3178;48.730;8.990;2022-09-27T08:48:27;1.47;;;0.87;;
6290;SDS011;3178;48.730;8.990;2022-09-27T08:50:54;3.43;;;0.73;;
6290;SDS011;3178;48.730;8.990;2022-09-27T08:54:04;2.70;;;0.63;;
6290;SDS011;3178;48.730;8.990;2022-09-27T08:56:16;2.17;;;0.70;;
6290;SDS011;3178;48.730;8.990;2022-09-27T09:01:15;2.10;;;0.70;;
6290;SDS011;3178;48.730;8.990;2022-09-27T09:03:43;2.23;;;0.90;;
6290;SDS011;3178;48.730;8.990;2022-09-27T09:06:16;1.00;;;0.50;;
6290;SDS011;3178;48.730;8.990;2022-09-27T09:11:55;1.40;;;0.63;;
6290;SDS011;3178;48.730;8.990;2022-09-27T09:25:55;1.10;;;0.60;;
6290;SDS011;3178;48.730;8.990;2022-09-27T09:34:26;2.63;;;1.00;;
6290;SDS011;3178;48.730;8.990;2022-09-27T09:37:02;2.27;;;0.90;;
6290;SDS011;3178;48.730;8.990;2022-09-27T09:39:55;6.23;;;1.00;;
6290;SDS011;3178;48.730;8.990;2022-09-27T09:42:30;2.03;;;1.00;;
6290;SDS011;3178;48.730;8.990;2022-09-27T09:45:05;3.57;;;1.13;;
6290;SDS011;3178;48.730;8.990;2022-09-27T09:47:34;3.00;;;0.93;;
6290;SDS011;3178;48.730;8.990;2022-09-27T09:50:22;4.50;;;0.97;;
6290;SDS011;3178;48.730;8.990;2022-09-27T09:53:03;3.80;;;0.83;;
6290;SDS011;3178;48.730;8.990;2022-09-27T09:55:54;1.67;;;0.73;;
6290;SDS011;3178;48.730;8.990;2022-09-27T09:58:27;5.93;;;1.67;;
6290;SDS011;3178;48.730;8.990;2022-09-27T10:01:08;3.27;;;1.10;;
6290;SDS011;3178;48.730;8.990;2022-09-27T10:03:47;2.23;;;0.90;;
6290;SDS011;3178;48.730;8.990;2022-09-27T10:06:12;2.80;;;0.93;;
6290;SDS011;3178;48.730;8.990;2022-09-27T10:08:40;3.37;;;1.03;;
6290;SDS011;3178;48.730;8.990;2022-09-27T10:11:06;1.90;;;1.20;;
6290;SDS011;3178;48.730;8.990;2022-09-27T10:13:42;4.60;;;1.10;;
6290;SDS011;3178;48.730;8.990;2022-09-27T10:16:09;2.70;;;0.90;;
6290;SDS011;3178;48.730;8.990;2022-09-27T10:18:38;4.13;;;0.90;;
6290;SDS011;3178;48.730;8.990;2022-09-27T10:21:06;3.20;;;1.30;;
6290;SDS011;3178;48.730;8.990;2022-09-27T10:23:59;2.70;;;0.90;;
6290;SDS011;3178;48.730;8.990;2022-09-27T10:26:28;3.00;;;0.97;;
6290;SDS011;3178;48.730;8.990;2022-09-27T10:28:54;1.50;;;0.70;;
6290;SDS011;3178;48.730;8.990;2022-09-27T10:31:19;3.27;;;1.37;;
6290;SDS011;3178;48.730;8.990;2022-09-27T10:33:53;2.03;;;1.00;;
6290;SDS011;3178;48.730;8.990;2022-09-27T10:36:24;6.07;;;0.97;;
6290;SDS011;3178;48.730;8.990;2022-09-27T10:38:55;3.47;;;1.43;;
6290;SDS011;3178;48.730;8.990;2022-09-27T10:41:35;4.37;;;1.20;;
6290;SDS011;3178;48.730;8.990;2022-09-27T10:46:41;12.87;;;1.63;;
6290;SDS011;3178;48.730;8.990;2022-09-27T10:52:21;4.37;;;1.10;;
6290;SDS011;3178;48.730;8.990;2022-09-27T10:54:59;5.33;;;1.03;;
6290;SDS011;3178;48.730;8.990;2022-09-27T10:57:29;5.27;;;1.10;;
6290;SDS011;3178;48.730;8.990;2022-09-27T11:00:06;2.10;;;1.20;;
6290;SDS011;3178;48.730;8.990;2022-09-27T11:02:45;2.63;;;1.23;;
6290;SDS011;3178;48.730;8.990;2022-09-27T11:07:52;2.53;;;1.00;;
6290;SDS011;3178;48.730;8.990;2022-09-27T11:10:22;1.97;;;0.90;;
6290;SDS011;3178;48.730;8.990;2022-09-27T11:21:00;4.03;;;1.30;;
6290;SDS011;3178;48.730;8.990;2022-09-27T11:33:10;3.63;;;1.10;;
6290;SDS011;3178;48.730;8.990;2022-09-27T11:35:46;1.40;;;0.83;;
6290;SDS011;3178;48.730;8.990;2022-09-27T11:38:17;2.57;;;1.07;;
6290;SDS011;3178;48.730;8.990;2022-09-27T11:43:41;3.80;;;1.00;;
6290;SDS011;3178;48.730;8.990;2022-09-27T11:46:33;1.93;;;0.80;;
6290;SDS011;3178;48.730;8.990;2022-09-27T11:51:52;1.97;;;0.70;;
6290;SDS011;3178;48.730;8.990;2022-09-27T11:55:02;4.37;;;1.43;;
6290;SDS011;3178;48.730;8.990;2022-09-27T11:57:35;2.30;;;1.10;;
6290;SDS011;3178;48.730;8.990;2022-09-27T12:02:53;2.60;;;0.83;;
6290;SDS011;3178;48.730;8.990;2022-09-27T12:13:49;1.63;;;0.93;;
6290;SDS011;3178;48.730;8.990;2022-09-27T12:16:38;2.47;;;0.70;;
6290;SDS011;3178;48.730;8.990;2022-09-27T12:19:08;4.03;;;1.00;;
6290;SDS011;3178;48.730;8.990;2022-09-27T12:21:49;3.30;;;1.10;;
6290;SDS011;3178;48.730;8.990;2022-09-27T12:24:17;1.87;;;0.80;;
6290;SDS011;3178;48.730;8.990;2022-09-27T12:26:45;1.53;;;0.93;;
6290;SDS011;3178;48.730;8.990;2022-09-27T12:29:19;2.10;;;0.97;;
6290;SDS011;3178;48.730;8.990;2022-09-27T12:31:48;3.90;;;1.80;;
6290;SDS011;3178;48.730;8.990;2022-09-27T12:34:35;1.53;;;0.80;;
6290;SDS011;3178;48.730;8.990;2022-09-27T12:37:07;1.53;;;0.87;;
6290;SDS011;3178;48.730;8.990;2022-09-27T12:39:57;1.83;;;0.53;;
6290;SDS011;3178;48.730;8.990;2022-09-27T12:42:37;1.10;;;0.70;;
6290;SDS011;3178;48.730;8.990;2022-09-27T12:45:27;1.80;;;0.97;;
6290;SDS011;3178;48.730;8.990;2022-09-27T12:48:08;2.57;;;0.93;;
6290;SDS011;3178;48.730;8.990;2022-09-27T12:50:53;3.93;;;1.00;;
6290;SDS011;3178;48.730;8.990;2022-09-27T12:53:25;1.30;;;0.70;;
6290;SDS011;3178;48.730;8.990;2022-09-27T12:58:47;2.00;;;1.27;;
6290;SDS011;3178;48.730;8.990;2022-09-27T13:04:28;1.47;;;0.80;;
6290;SDS011;3178;48.730;8.990;2022-09-27T13:06:59;2.37;;;1.10;;
6290;SDS011;3178;48.730;8.990;2022-09-27T13:12:47;1.03;;;0.70;;
6290;SDS011;3178;48.730;8.990;2022-09-27T13:15:17;1.67;;;0.60;;
6290;SDS011;3178;48.730;8.990;2022-09-27T13:17:50;1.00;;;0.70;;
6290;SDS011;3178;48.730;8.990;2022-09-27T13:23:02;1.73;;;1.00;;
6290;SDS011;3178;48.730;8.990;2022-09-27T13:25:56;1.93;;;0.67;;
6290;SDS011;3178;48.730;8.990;2022-09-27T13:31:09;1.87;;;0.60;;
6290;SDS011;3178;48.730;8.990;2022-09-27T13:33:51;1.20;;;0.60;;
6290;SDS011;3178;48.730;8.990;2022-09-27T13:41:25;1.20;;;0.70;;
6290;SDS011;3178;48.730;8.990;2022-09-27T13:46:44;3.63;;;0.97;;
6290;SDS011;3178;48.730;8.990;2022-09-27T13:52:55;1.30;;;1.10;;
6290;SDS011;3178;48.730;8.990;2022-09-27T13:54:58;3.30;;;1.00;;
6290;SDS011;3178;48.730;8.990;2022-09-27T14:00:10;5.03;;;1.80;;
6290;SDS011;3178;48.730;8.990;2022-09-27T14:02:41;2.90;;;1.03;;
6290;SDS011;3178;48.730;8.990;2022-09-27T14:05:26;3.20;;;1.37;;
6290;SDS011;3178;48.730;8.990;2022-09-27T14:07:56;1.90;;;0.70;;
6290;SDS011;3178;48.730;8.990;2022-09-27T14:10:26;1.37;;;0.90;;
6290;SDS011;3178;48.730;8.990;2022-09-27T14:12:53;1.47;;;1.00;;
6290;SDS011;3178;48.730;8.990;2022-09-27T14:15:23;1.40;;;0.80;;
6290;SDS011;3178;48.730;8.990;2022-09-27T14:17:51;2.37;;;0.90;;
6290;SDS011;3178;48.730;8.990;2022-09-27T14:20:28;3.30;;;1.30;;
6290;SDS011;3178;48.730;8.990;2022-09-27T14:23:05;1.73;;;1.07;;
6290;SDS011;3178;48.730;8.990;2022-09-27T14:25:46;1.83;;;0.97;;
6290;SDS011;3178;48.730;8.990;2022-09-27T14:28:24;4.20;;;1.20;;
6290;SDS011;3178;48.730;8.990;2022-09-27T14:33:38;2.60;;;1.20;;
6290;SDS011;3178;48.730;8.990;2022-09-27T14:36:06;2.07;;;1.20;;
6290;SDS011;3178;48.730;8.990;2022-09-27T14:39:00;1.30;;;0.80;;
6290;SDS011;3178;48.730;8.990;2022-09-27T14:41:25;1.70;;;1.07;;
6290;SDS011;3178;48.730;8.990;2022-09-27T14:43:58;1.17;;;0.77;;
6290;SDS011;3178;48.730;8.990;2022-09-27T14:46:26;1.63;;;0.83;;
6290;SDS011;3178;48.730;8.990;2022-09-27T14:48:53;1.50;;;0.63;;
6290;SDS011;3178;48.730;8.990;2022-09-27T14:51:20;1.73;;;1.00;;
6290;SDS011;3178;48.730;8.990;2022-09-27T14:53:52;1.47;;;0.80;;
6290;SDS011;3178;48.730;8.990;2022-09-27T14:56:32;1.40;;;0.67;;
6290;SDS011;3178;48.730;8.990;2022-09-27T14:59:02;1.40;;;1.00;;
6290;SDS011;3178;48.730;8.990;2022-09-27T15:01:33;3.00;;;0.67;;
6290;SDS011;3178;48.730;8.990;2022-09-27T15:04:03;2.53;;;0.77;;
6290;SDS011;3178;48.730;8.990;2022-09-27T15:06:34;3.73;;;0.70;;
6290;SDS011;3178;48.730;8.990;2022-09-27T15:09:00;2.23;;;0.70;;
6290;SDS011;3178;48.730;8.990;2022-09-27T15:11:27;1.50;;;0.67;;
6290;SDS011;3178;48.730;8.990;2022-09-27T15:13:58;1.30;;;0.60;;
6290;SDS011;3178;48.730;8.990;2022-09-27T15:16:27;3.33;;;0.60;;
6290;SDS011;3178;48.730;8.990;2022-09-27T15:18:59;1.30;;;0.60;;
6290;SDS011;3178;48.730;8.990;2022-09-27T15:21:28;9.00;;;0.97;;
6290;SDS011;3178;48.730;8.990;2022-09-27T15:23:56;5.33;;;0.70;;
6290;SDS011;3178;48.730;8.990;2022-09-27T15:26:25;1.70;;;0.63;;
6290;SDS011;3178;48.730;8.990;2022-09-27T15:28:59;2.63;;;1.13;;
6290;SDS011;3178;48.730;8.990;2022-09-27T15:31:35;1.20;;;0.90;;
6290;SDS011;3178;48.730;8.990;2022-09-27T15:34:01;1.67;;;0.63;;
6290;SDS011;3178;48.730;8.990;2022-09-27T15:39:16;3.73;;;0.80;;
6290;SDS011;3178;48.730;8.990;2022-09-27T15:44:47;1.97;;;0.90;;
6290;SDS011;3178;48.730;8.990;2022-09-27T15:47:38;3.57;;;0.93;;
6290;SDS011;3178;48.730;8.990;2022-09-27T15:52:42;2.80;;;0.87;;
6290;SDS011;3178;48.730;8.990;2022-09-27T15:55:12;3.97;;;0.80;;
6290;SDS011;3178;48.730;8.990;2022-09-27T15:57:39;5.40;;;1.00;;
6290;SDS011;3178;48.730;8.990;2022-09-27T16:00:05;2.43;;;0.80;;
6290;SDS011;3178;48.730;8.990;2022-09-27T16:02:36;4.30;;;0.80;;
6290;SDS011;3178;48.730;8.990;2022-09-27T16:05:01;2.90;;;1.00;;
6290;SDS011;3178;48.730;8.990;2022-09-27T16:07:27;4.80;;;1.03;;
6290;SDS011;3178;48.730;8.990;2022-09-27T16:09:53;2.07;;;1.10;;
6290;SDS011;3178;48.730;8.990;2022-09-27T16:12:19;1.40;;;0.90;;
6290;SDS011;3178;48.730;8.990;2022-09-27T16:14:45;2.53;;;1.00;;
6290;SDS011;3178;48.730;8.990;2022-09-27T16:17:11;6.43;;;1.33;;
6290;SDS011;3178;48.730;8.990;2022-09-27T16:19:37;10.00;;;1.20;;
6290;SDS011;3178;48.730;8.990;2022-09-27T16:22:03;1.87;;;0.70;;
6290;SDS011;3178;48.730;8.990;2022-09-27T16:24:29;1.63;;;0.87;;
6290;SDS011;3178;48.730;8.990;2022-09-27T16:26:56;4.67;;;0.90;;
6290;SDS011;3178;48.730;8.990;2022-09-27T16:29:22;1.77;;;0.93;;
6290;SDS011;3178;48.730;8.990;2022-09-27T16:31:48;5.10;;;1.00;;
6290;SDS011;3178;48.730;8.990;2022-09-27T16:34:14;2.03;;;1.20;;
6290;SDS011;3178;48.730;8.990;2022-09-27T16:36:40;2.67;;;1.40;;
6290;SDS011;3178;48.730;8.990;2022-09-27T16:39:06;5.63;;;1.30;;
6290;SDS011;3178;48.730;8.990;2022-09-27T16:41:37;1.40;;;1.03;;
6290;SDS011;3178;48.730;8.990;2022-09-27T16:44:08;1.57;;;0.80;;
6290;SDS011;3178;48.730;8.990;2022-09-27T16:46:38;3.67;;;1.00;;
6290;SDS011;3178;48.730;8.990;2022-09-27T16:49:10;5.00;;;1.00;;
6290;SDS011;3178;48.730;8.990;2022-09-27T16:51:56;3.17;;;1.10;;
6290;SDS011;3178;48.730;8.990;2022-09-27T16:54:25;2.90;;;1.20;;
6290;SDS011;3178;48.730;8.990;2022-09-27T16:56:53;3.97;;;1.47;;
6290;SDS011;3178;48.730;8.990;2022-09-27T16:59:19;7.63;;;1.30;;
6290;SDS011;3178;48.730;8.990;2022-09-27T17:01:45;1.60;;;0.90;;
6290;SDS011;3178;48.730;8.990;2022-09-27T17:04:11;2.00;;;1.00;;
6290;SDS011;3178;48.730;8.990;2022-09-27T17:06:38;5.33;;;1.10;;
6290;SDS011;3178;48.730;8.990;2022-09-27T17:09:04;1.47;;;0.77;;
6290;SDS011;3178;48.730;8.990;2022-09-27T17:11:30;5.43;;;1.03;;
6290;SDS011;3178;48.730;8.990;2022-09-27T17:13:56;2.77;;;1.10;;
6290;SDS011;3178;48.730;8.990;2022-09-27T17:16:22;6.33;;;1.57;;
6290;SDS011;3178;48.730;8.990;2022-09-27T17:18:48;3.70;;;0.90;;
6290;SDS011;3178;48.730;8.990;2022-09-27T17:21:14;5.63;;;1.20;;
6290;SDS011;3178;48.730;8.990;2022-09-27T17:23:39;2.90;;;1.10;;
6290;SDS011;3178;48.730;8.990;2022-09-27T17:28:46;8.73;;;1.33;;
6290;SDS011;3178;48.730;8.990;2022-09-27T17:31:14;5.33;;;1.23;;
6290;SDS011;3178;48.730;8.990;2022-09-27T17:33:43;6.53;;;1.20;;
6290;SDS011;3178;48.730;8.990;2022-09-27T17:36:36;1.73;;;0.80;;
6290;SDS011;3178;48.730;8.990;2022-09-27T17:39:02;2.90;;;1.23;;
6290;SDS011;3178;48.730;8.990;2022-09-27T17:41:28;1.83;;;0.93;;
6290;SDS011;3178;48.730;8.990;2022-09-27T17:43:54;3.53;;;1.03;;
6290;SDS011;3178;48.730;8.990;2022-09-27T17:46:23;3.57;;;1.07;;
6290;SDS011;3178;48.730;8.990;2022-09-27T17:48:51;2.90;;;1.10;;
6290;SDS011;3178;48.730;8.990;2022-09-27T17:51:36;10.83;;;1.07;;
6290;SDS011;3178;48.730;8.990;2022-09-27T17:54:04;2.30;;;1.07;;
6290;SDS011;3178;48.730;8.990;2022-09-27T17:56:31;6.60;;;1.20;;
6290;SDS011;3178;48.730;8.990;2022-09-27T17:59:00;2.30;;;0.80;;
6290;SDS011;3178;48.730;8.990;2022-09-27T18:01:26;1.20;;;0.80;;
6290;SDS011;3178;48.730;8.990;2022-09-27T18:03:52;2.20;;;1.03;;